createdAt,value
2023-05-12T00:01:44.225Z,100.00
2023-05-12T00:04:12.350Z,100.00
2023-05-12T00:06:41.603Z,100.00
2023-05-12T00:09:09.667Z,100.00
2023-05-12T00:11:37.799Z,100.00
2023-05-12T00:14:05.904Z,100.00
2023-05-12T00:16:33.849Z,100.00
2023-05-12T00:19:01.841Z,100.00
2023-05-12T00:21:29.683Z,100.00
2023-05-12T00:23:58.969Z,100.00
2023-05-12T00:26:26.993Z,100.00
2023-05-12T00:28:54.983Z,100.00
2023-05-12T00:31:22.920Z,100.00
2023-05-12T00:33:51.024Z,100.00
2023-05-12T00:36:18.862Z,100.00
2023-05-12T00:38:46.670Z,100.00
2023-05-12T00:41:16.104Z,100.00
2023-05-12T00:43:43.970Z,100.00
2023-05-12T00:46:12.416Z,100.00
2023-05-12T00:48:40.577Z,100.00
2023-05-12T00:51:09.636Z,100.00
2023-05-12T00:53:48.483Z,100.00
2023-05-12T00:56:21.884Z,100.00
2023-05-12T00:58:49.805Z,100.00
2023-05-12T01:01:18.685Z,100.00
2023-05-12T01:03:49.411Z,100.00
2023-05-12T01:06:22.934Z,100.00
2023-05-12T01:08:51.211Z,100.00
2023-05-12T01:11:21.714Z,100.00
2023-05-12T01:13:49.611Z,100.00
2023-05-12T01:16:19.052Z,100.00
2023-05-12T01:18:51.471Z,100.00
2023-05-12T01:21:20.720Z,100.00
2023-05-12T01:23:53.209Z,100.00
2023-05-12T01:26:22.880Z,100.00
2023-05-12T01:28:52.365Z,100.00
2023-05-12T01:31:21.537Z,100.00
2023-05-12T01:33:49.632Z,100.00
2023-05-12T01:36:18.749Z,100.00
2023-05-12T01:38:46.791Z,100.00
2023-05-12T01:41:14.674Z,100.00
2023-05-12T01:43:43.992Z,100.00
2023-05-12T01:46:12.629Z,100.00
2023-05-12T01:48:43.716Z,100.00
2023-05-12T01:51:11.839Z,100.00
2023-05-12T01:53:40.213Z,100.00
2023-05-12T01:56:08.351Z,100.00
2023-05-12T01:58:37.160Z,100.00
2023-05-12T02:01:06.887Z,100.00
2023-05-12T02:03:34.914Z,100.00
2023-05-12T02:06:02.881Z,100.00
2023-05-12T02:08:31.062Z,100.00
2023-05-12T02:11:06.875Z,100.00
2023-05-12T02:13:35.218Z,100.00
2023-05-12T02:16:03.847Z,100.00
2023-05-12T02:18:33.381Z,100.00
2023-05-12T02:21:01.393Z,100.00
2023-05-12T02:23:30.723Z,100.00
2023-05-12T02:25:59.336Z,100.00
2023-05-12T02:28:27.204Z,100.00
2023-05-12T02:30:55.388Z,100.00
2023-05-12T02:33:24.132Z,100.00
2023-05-12T02:35:53.568Z,100.00
2023-05-12T02:38:21.721Z,100.00
2023-05-12T02:40:50.627Z,100.00
2023-05-12T02:43:18.500Z,100.00
2023-05-12T02:45:46.597Z,100.00
2023-05-12T02:48:14.467Z,100.00
2023-05-12T02:50:43.161Z,100.00
2023-05-12T02:53:12.515Z,100.00
2023-05-12T02:55:40.465Z,100.00
2023-05-12T02:58:09.183Z,100.00
2023-05-12T03:00:38.836Z,100.00
2023-05-12T03:03:06.979Z,100.00
2023-05-12T03:05:34.939Z,100.00
2023-05-12T03:08:03.228Z,100.00
2023-05-12T03:10:32.589Z,100.00
2023-05-12T03:13:00.571Z,100.00
2023-05-12T03:15:28.898Z,100.00
2023-05-12T03:17:56.861Z,100.00
2023-05-12T03:20:24.792Z,100.00
2023-05-12T03:22:52.909Z,100.00
2023-05-12T03:25:20.993Z,100.00
2023-05-12T03:27:50.180Z,100.00
2023-05-12T03:30:18.549Z,100.00
2023-05-12T03:32:47.312Z,100.00
2023-05-12T03:35:15.335Z,100.00
2023-05-12T03:37:43.237Z,100.00
2023-05-12T03:40:12.209Z,100.00
2023-05-12T03:42:40.186Z,100.00
2023-05-12T03:45:11.765Z,100.00
2023-05-12T03:47:40.549Z,100.00
2023-05-12T03:50:09.654Z,100.00
2023-05-12T03:52:38.464Z,100.00
2023-05-12T03:55:07.245Z,100.00
2023-05-12T03:57:36.451Z,100.00
2023-05-12T04:00:05.096Z,100.00
2023-05-12T04:02:42.065Z,100.00
2023-05-12T04:05:10.380Z,100.00
2023-05-12T04:07:38.316Z,100.00
2023-05-12T04:10:07.508Z,100.00
2023-05-12T04:12:35.456Z,100.00
2023-05-12T04:15:03.745Z,100.00
2023-05-12T04:17:31.919Z,100.00
2023-05-12T04:20:01.335Z,100.00
2023-05-12T04:22:29.157Z,100.00
2023-05-12T04:24:57.151Z,100.00
2023-05-12T04:27:25.308Z,100.00
2023-05-12T04:29:53.353Z,100.00
2023-05-12T04:32:22.804Z,100.00
2023-05-12T04:34:51.603Z,100.00
2023-05-12T04:37:22.269Z,100.00
2023-05-12T04:39:50.491Z,100.00
2023-05-12T04:42:18.570Z,100.00
2023-05-12T04:44:46.730Z,100.00
2023-05-12T04:47:15.106Z,100.00
2023-05-12T04:49:42.901Z,100.00
2023-05-12T04:52:10.736Z,100.00
2023-05-12T04:54:39.991Z,100.00
2023-05-12T04:57:08.380Z,100.00
2023-05-12T04:59:36.723Z,100.00
2023-05-12T05:02:05.422Z,100.00
2023-05-12T05:04:33.639Z,100.00
2023-05-12T05:07:02.224Z,100.00
2023-05-12T05:09:30.813Z,100.00
2023-05-12T05:12:00.190Z,100.00
2023-05-12T05:14:28.184Z,100.00
2023-05-12T05:16:57.881Z,100.00
2023-05-12T05:19:39.159Z,100.00
2023-05-12T05:22:13.614Z,100.00
2023-05-12T05:24:41.523Z,100.00
2023-05-12T05:27:11.292Z,100.00
2023-05-12T05:29:39.301Z,100.00
2023-05-12T05:32:08.033Z,100.00
2023-05-12T05:34:36.127Z,100.00
2023-05-12T05:37:04.238Z,100.00
2023-05-12T05:39:32.303Z,100.00
2023-05-12T05:42:00.347Z,100.00
2023-05-12T05:44:29.610Z,100.00
2023-05-12T05:46:58.615Z,100.00
2023-05-12T05:49:28.135Z,100.00
2023-05-12T05:51:57.421Z,100.00
2023-05-12T05:54:25.752Z,100.00
2023-05-12T05:56:53.753Z,100.00
2023-05-12T05:59:21.676Z,100.00
2023-05-12T06:01:51.034Z,100.00
2023-05-12T06:04:18.999Z,100.00
2023-05-12T06:06:47.726Z,100.00
2023-05-12T06:09:15.911Z,100.00
2023-05-12T06:11:43.830Z,100.00
2023-05-12T06:14:12.136Z,100.00
2023-05-12T06:16:40.537Z,100.00
2023-05-12T06:19:11.862Z,100.00
2023-05-12T06:21:40.008Z,100.00
2023-05-12T06:24:08.420Z,100.00
2023-05-12T06:26:37.557Z,100.00
2023-05-12T06:29:07.764Z,100.00
2023-05-12T06:31:36.215Z,100.00
2023-05-12T06:34:04.316Z,100.00
2023-05-12T06:36:33.513Z,100.00
2023-05-12T06:39:01.981Z,100.00
2023-05-12T06:41:29.992Z,100.00
2023-05-12T06:43:58.082Z,100.00
2023-05-12T06:46:28.956Z,100.00
2023-05-12T06:48:56.862Z,100.00
2023-05-12T06:51:24.762Z,100.00
2023-05-12T06:53:54.592Z,100.00
2023-05-12T06:56:23.307Z,100.00
2023-05-12T06:58:53.052Z,100.00
2023-05-12T07:01:21.106Z,100.00
2023-05-12T07:03:48.961Z,100.00
2023-05-12T07:06:16.857Z,100.00
2023-05-12T07:08:44.948Z,100.00
2023-05-12T07:11:19.860Z,100.00
2023-05-12T07:13:48.080Z,100.00
2023-05-12T07:16:16.318Z,100.00
2023-05-12T07:18:44.549Z,100.00
2023-05-12T07:21:13.365Z,100.00
2023-05-12T07:23:41.531Z,100.00
2023-05-12T07:26:09.666Z,100.00
2023-05-12T07:28:39.072Z,100.00
2023-05-12T07:31:08.750Z,100.00
2023-05-12T07:33:37.591Z,100.00
2023-05-12T07:36:05.900Z,100.00
2023-05-12T07:38:33.898Z,100.00
2023-05-12T07:41:02.057Z,100.00
2023-05-12T07:43:29.984Z,100.00
2023-05-12T07:46:00.993Z,100.00
2023-05-12T07:48:28.946Z,100.00
2023-05-12T07:50:57.462Z,100.00
2023-05-12T07:53:25.414Z,100.00
2023-05-12T07:55:53.224Z,100.00
2023-05-12T07:58:21.023Z,100.00
2023-05-12T08:00:48.951Z,100.00
2023-05-12T08:03:18.318Z,100.00
2023-05-12T08:05:46.251Z,100.00
2023-05-12T08:08:16.674Z,100.00
2023-05-12T08:10:44.857Z,100.00
2023-05-12T08:13:12.762Z,100.00
2023-05-12T08:15:42.899Z,100.00
2023-05-12T08:18:10.798Z,100.00
2023-05-12T08:20:40.145Z,100.00
2023-05-12T08:23:08.143Z,100.00
2023-05-12T08:25:37.556Z,100.00
2023-05-12T08:28:05.557Z,100.00
2023-05-12T08:30:33.407Z,100.00
2023-05-12T08:33:01.666Z,98.34
2023-05-12T08:35:29.642Z,98.81
2023-05-12T08:37:59.610Z,100.00
2023-05-12T08:40:31.433Z,99.96
2023-05-12T08:43:08.661Z,91.30
2023-05-12T08:45:38.434Z,88.46
2023-05-12T08:48:10.852Z,87.59
2023-05-12T08:50:39.977Z,87.24
2023-05-12T08:53:11.811Z,83.74
2023-05-12T08:55:50.825Z,86.16
2023-05-12T08:58:37.817Z,85.43
2023-05-12T09:01:08.622Z,82.27
2023-05-12T09:03:36.564Z,83.86
2023-05-12T09:06:06.817Z,85.37
2023-05-12T09:08:36.707Z,85.35
2023-05-12T09:11:04.950Z,83.49
2023-05-12T09:13:40.939Z,82.01
2023-05-12T09:16:12.545Z,82.59
2023-05-12T09:18:49.113Z,81.24
2023-05-12T09:21:17.047Z,84.08
2023-05-12T09:23:55.483Z,81.94
2023-05-12T09:26:24.026Z,82.66
2023-05-12T09:28:54.887Z,82.44
2023-05-12T09:31:24.196Z,81.37
2023-05-12T09:33:53.050Z,81.26
2023-05-12T09:36:21.573Z,80.47
2023-05-12T09:39:04.852Z,80.91
2023-05-12T09:41:35.998Z,79.51
2023-05-12T09:44:04.102Z,76.47
2023-05-12T09:46:32.535Z,76.84
2023-05-12T09:49:01.096Z,74.58
2023-05-12T09:51:29.303Z,72.15
2023-05-12T09:53:57.176Z,73.33
2023-05-12T09:56:28.972Z,71.24
2023-05-12T09:58:58.165Z,71.31
2023-05-12T10:01:27.717Z,73.17
2023-05-12T10:03:58.415Z,76.37
2023-05-12T10:06:28.187Z,76.09
2023-05-12T10:09:03.612Z,72.93
2023-05-12T10:11:33.367Z,74.13
2023-05-12T10:14:01.674Z,73.12
2023-05-12T10:16:30.064Z,69.64
2023-05-12T10:18:57.916Z,72.16
2023-05-12T10:21:26.592Z,71.65
2023-05-12T10:23:55.293Z,72.72
2023-05-12T10:26:23.269Z,66.41
2023-05-12T10:28:53.318Z,67.47
2023-05-12T10:31:22.282Z,67.78
2023-05-12T10:33:58.111Z,65.13
2023-05-12T10:36:26.200Z,66.93
2023-05-12T10:38:54.760Z,66.93
2023-05-12T10:41:32.760Z,66.67
2023-05-12T10:44:02.561Z,64.59
2023-05-12T10:46:30.938Z,68.29
2023-05-12T10:49:00.792Z,67.36
2023-05-12T10:51:31.103Z,66.92
2023-05-12T10:54:01.099Z,69.48
2023-05-12T10:56:31.030Z,63.10
2023-05-12T10:59:12.804Z,61.25
2023-05-12T11:01:42.970Z,60.01
2023-05-12T11:04:16.345Z,59.71
2023-05-12T11:06:47.027Z,53.97
2023-05-12T11:09:17.511Z,57.04
2023-05-12T11:11:46.090Z,53.45
2023-05-12T11:14:15.742Z,52.90
2023-05-12T11:16:44.446Z,54.38
2023-05-12T11:19:13.894Z,58.39
2023-05-12T11:21:42.408Z,58.96
2023-05-12T11:24:14.655Z,60.63
2023-05-12T11:26:42.572Z,55.49
2023-05-12T11:29:10.772Z,56.21
2023-05-12T11:31:40.073Z,58.92
2023-05-12T11:34:13.017Z,51.01
2023-05-12T11:36:43.430Z,49.43
2023-05-12T11:39:16.610Z,46.66
2023-05-12T11:41:44.785Z,47.04
2023-05-12T11:44:17.393Z,43.26
2023-05-12T11:46:57.469Z,44.07
2023-05-12T11:49:25.741Z,40.68
2023-05-12T11:51:54.941Z,42.02
2023-05-12T11:54:24.191Z,42.96
2023-05-12T11:56:53.684Z,43.28
2023-05-12T11:59:29.744Z,41.24
2023-05-12T12:02:00.328Z,42.19
2023-05-12T12:04:36.381Z,42.09
2023-05-12T12:07:05.255Z,42.09
2023-05-12T12:09:37.711Z,40.93
2023-05-12T12:12:06.978Z,40.73
2023-05-12T12:14:37.144Z,41.67
2023-05-12T12:17:06.324Z,40.85
2023-05-12T12:19:34.206Z,40.63
2023-05-12T12:22:02.045Z,41.11
2023-05-12T12:24:29.922Z,41.38
2023-05-12T12:26:57.768Z,41.69
2023-05-12T12:29:28.310Z,40.31
2023-05-12T12:31:56.864Z,41.72
2023-05-12T12:34:25.965Z,42.93
2023-05-12T12:36:53.950Z,42.42
2023-05-12T12:39:23.252Z,41.71
2023-05-12T12:41:51.252Z,42.65
2023-05-12T12:44:19.054Z,39.16
2023-05-12T12:46:47.165Z,40.40
2023-05-12T12:49:14.955Z,42.83
2023-05-12T12:51:46.682Z,40.59
2023-05-12T12:54:15.363Z,39.56
2023-05-12T12:56:44.122Z,38.83
2023-05-12T12:59:11.977Z,40.94
2023-05-12T13:01:40.007Z,39.63
2023-05-12T13:04:07.876Z,37.12
2023-05-12T13:06:35.755Z,36.46
2023-05-12T13:09:05.568Z,35.55
2023-05-12T13:11:33.568Z,36.95
2023-05-12T13:14:02.343Z,38.10
2023-05-12T13:16:30.980Z,39.01
2023-05-12T13:18:58.938Z,39.34
2023-05-12T13:21:27.023Z,40.23
2023-05-12T13:23:54.962Z,39.00
2023-05-12T13:26:24.694Z,40.13
2023-05-12T13:28:52.688Z,40.70
2023-05-12T13:31:20.866Z,40.31
2023-05-12T13:33:48.778Z,40.59
2023-05-12T13:36:16.738Z,40.93
2023-05-12T13:38:46.716Z,40.74
2023-05-12T13:41:14.781Z,42.27
2023-05-12T13:43:44.203Z,41.40
2023-05-12T13:46:12.154Z,41.23
2023-05-12T13:48:39.926Z,42.04
2023-05-12T13:51:07.769Z,42.73
2023-05-12T13:53:38.394Z,42.77
2023-05-12T13:56:15.718Z,42.97
2023-05-12T13:58:45.191Z,39.00
2023-05-12T14:01:13.088Z,40.79
2023-05-12T14:03:42.104Z,41.03
2023-05-12T14:06:10.738Z,37.26
2023-05-12T14:08:38.660Z,38.31
2023-05-12T14:11:06.670Z,37.24
2023-05-12T14:13:34.870Z,37.28
2023-05-12T14:16:04.191Z,38.00
2023-05-12T14:18:32.327Z,39.24
2023-05-12T14:21:00.416Z,38.83
2023-05-12T14:23:28.328Z,39.67
2023-05-12T14:25:56.479Z,39.72
2023-05-12T14:28:24.503Z,39.81
2023-05-12T14:30:53.633Z,40.23
2023-05-12T14:33:22.868Z,40.83
2023-05-12T14:36:03.201Z,39.92
2023-05-12T14:38:34.151Z,39.12
2023-05-12T14:41:01.953Z,40.25
2023-05-12T14:43:29.730Z,40.62
2023-05-12T14:45:57.727Z,39.23
2023-05-12T14:48:27.203Z,39.86
2023-05-12T14:50:55.561Z,38.51
2023-05-12T14:53:24.502Z,39.31
2023-05-12T14:55:53.001Z,37.75
2023-05-12T14:58:21.975Z,37.16
2023-05-12T15:00:52.028Z,35.99
2023-05-12T15:03:21.073Z,35.84
2023-05-12T15:08:21.887Z,35.50
2023-05-12T15:10:49.878Z,35.17
2023-05-12T15:13:20.351Z,34.51
2023-05-12T15:15:48.467Z,34.97
2023-05-12T15:18:16.516Z,34.20
2023-05-12T15:20:44.423Z,34.91
2023-05-12T15:23:13.705Z,34.48
2023-05-12T15:25:42.166Z,35.18
2023-05-12T15:28:09.986Z,33.36
2023-05-12T15:30:37.813Z,33.52
2023-05-12T15:33:06.187Z,33.71
2023-05-12T15:35:34.312Z,34.06
2023-05-12T15:38:02.395Z,33.81
2023-05-12T15:40:31.579Z,34.06
2023-05-12T15:42:59.382Z,34.40
2023-05-12T15:45:27.265Z,33.47
2023-05-12T15:47:56.392Z,33.51
2023-05-12T15:50:24.562Z,32.62
2023-05-12T15:52:52.547Z,33.65
2023-05-12T15:55:20.741Z,33.93
2023-05-12T15:57:50.102Z,32.26
2023-05-12T16:00:19.522Z,33.11
2023-05-12T16:02:47.752Z,34.13
2023-05-12T16:05:16.201Z,33.72
2023-05-12T16:07:44.121Z,34.73
2023-05-12T16:10:12.008Z,33.37
2023-05-12T16:12:40.068Z,33.76
2023-05-12T16:15:11.529Z,33.28
2023-05-12T16:17:39.376Z,34.08
2023-05-12T16:20:09.316Z,33.76
2023-05-12T16:22:37.615Z,32.76
2023-05-12T16:25:06.697Z,33.49
2023-05-12T16:27:36.621Z,33.21
2023-05-12T16:30:04.865Z,33.76
2023-05-12T16:32:34.041Z,34.06
2023-05-12T16:35:01.899Z,34.09
2023-05-12T16:37:29.752Z,34.19
2023-05-12T16:39:57.558Z,32.75
2023-05-12T16:42:25.491Z,32.74
2023-05-12T16:44:54.506Z,33.43
2023-05-12T16:47:22.676Z,33.36
2023-05-12T16:49:55.289Z,33.46
2023-05-12T16:52:23.101Z,32.68
2023-05-12T16:54:51.055Z,33.79
2023-05-12T16:57:19.088Z,33.16
2023-05-12T16:59:48.276Z,33.36
2023-05-12T17:02:16.513Z,33.34
2023-05-12T17:04:44.758Z,33.51
2023-05-12T17:07:13.944Z,33.54
2023-05-12T17:09:41.819Z,33.54
2023-05-12T17:12:10.876Z,34.69
2023-05-12T17:14:38.723Z,33.59
2023-05-12T17:17:06.887Z,34.48
2023-05-12T17:19:35.259Z,34.92
2023-05-12T17:22:03.846Z,34.62
2023-05-12T17:24:33.469Z,34.69
2023-05-12T17:27:01.367Z,35.54
2023-05-12T17:29:29.455Z,34.95
2023-05-12T17:31:57.388Z,35.28
2023-05-12T17:34:25.216Z,34.45
2023-05-12T17:36:53.071Z,35.21
2023-05-12T17:39:21.143Z,34.88
2023-05-12T17:41:50.338Z,35.81
2023-05-12T17:44:18.189Z,35.55
2023-05-12T17:46:46.092Z,35.68
2023-05-12T17:49:13.958Z,35.10
2023-05-12T17:51:41.749Z,35.55
2023-05-12T17:54:09.531Z,35.69
2023-05-12T17:56:37.596Z,36.13
2023-05-12T17:59:07.154Z,36.05
2023-05-12T18:01:35.016Z,36.21
2023-05-12T18:04:03.030Z,35.97
2023-05-12T18:06:32.079Z,35.95
2023-05-12T18:08:59.938Z,36.58
2023-05-12T18:11:29.116Z,35.76
2023-05-12T18:13:56.906Z,36.36
2023-05-12T18:16:29.513Z,36.80
2023-05-12T18:18:58.464Z,36.69
2023-05-12T18:21:26.803Z,36.57
2023-05-12T18:23:54.977Z,36.87
2023-05-12T18:26:22.957Z,37.34
2023-05-12T18:28:50.819Z,37.32
2023-05-12T18:31:20.028Z,37.17
2023-05-12T18:33:49.685Z,37.71
2023-05-12T18:36:18.081Z,38.60
2023-05-12T18:38:47.172Z,38.12
2023-05-12T18:41:15.259Z,38.54
2023-05-12T18:43:44.740Z,39.25
2023-05-12T18:46:12.764Z,39.95
2023-05-12T18:48:40.699Z,42.14
2023-05-12T18:51:10.081Z,42.65
2023-05-12T18:53:37.899Z,41.82
2023-05-12T18:56:06.215Z,46.53
2023-05-12T18:58:33.999Z,47.37
2023-05-12T19:01:01.981Z,48.30
2023-05-12T19:03:31.690Z,51.53
2023-05-12T19:05:59.552Z,54.67
2023-05-12T19:08:28.711Z,55.57
2023-05-12T19:10:56.534Z,57.05
2023-05-12T19:13:24.319Z,53.07
2023-05-12T19:15:52.184Z,56.20
2023-05-12T19:18:20.052Z,58.86
2023-05-12T19:20:48.240Z,61.45
2023-05-12T19:23:16.173Z,62.74
2023-05-12T19:25:45.461Z,60.64
2023-05-12T19:28:13.185Z,63.25
2023-05-12T19:30:41.217Z,57.77
2023-05-12T19:33:09.184Z,59.21
2023-05-12T19:35:37.028Z,58.12
2023-05-12T19:38:04.930Z,61.82
2023-05-12T19:40:33.249Z,61.80
2023-05-12T19:43:02.537Z,60.79
2023-05-12T19:45:30.405Z,64.93
2023-05-12T19:47:58.455Z,62.91
2023-05-12T19:50:26.336Z,65.46
2023-05-12T19:52:54.209Z,67.47
2023-05-12T19:55:22.336Z,69.21
2023-05-12T19:57:51.738Z,70.06
2023-05-12T20:00:22.158Z,70.24
2023-05-12T20:02:50.469Z,69.76
2023-05-12T20:05:18.962Z,70.76
2023-05-12T20:07:48.444Z,71.45
2023-05-12T20:10:16.351Z,71.38
2023-05-12T20:12:44.216Z,72.69
2023-05-12T20:15:12.617Z,72.19
2023-05-12T20:17:41.790Z,72.59
2023-05-12T20:20:12.077Z,71.80
2023-05-12T20:22:39.902Z,74.73
2023-05-12T20:25:08.154Z,75.07
2023-05-12T20:27:35.971Z,74.92
2023-05-12T20:30:03.788Z,76.17
2023-05-12T20:32:32.114Z,75.87
2023-05-12T20:35:01.324Z,76.72
2023-05-12T20:37:29.165Z,76.93
2023-05-12T20:39:57.011Z,78.37
2023-05-12T20:42:24.818Z,77.48
2023-05-12T20:44:52.612Z,78.36
2023-05-12T20:47:20.463Z,78.59
2023-05-12T20:49:48.455Z,77.92
2023-05-12T20:52:17.638Z,77.71
2023-05-12T20:54:45.547Z,77.53
2023-05-12T20:57:13.333Z,78.75
2023-05-12T20:59:41.422Z,75.91
2023-05-12T21:02:10.708Z,77.96
2023-05-12T21:04:38.570Z,77.66
2023-05-12T21:07:06.751Z,78.92
2023-05-12T21:09:36.057Z,80.01
2023-05-12T21:12:04.154Z,81.14
2023-05-12T21:14:31.927Z,81.91
2023-05-12T21:16:59.851Z,81.94
2023-05-12T21:19:27.851Z,82.19
2023-05-12T21:21:55.607Z,83.06
2023-05-12T21:24:23.622Z,83.00
2023-05-12T21:26:52.780Z,82.87
2023-05-12T21:29:20.594Z,83.77
2023-05-12T21:31:48.512Z,84.19
2023-05-12T21:34:16.719Z,84.78
2023-05-12T21:36:44.746Z,85.03
2023-05-12T21:39:12.585Z,86.30
2023-05-12T21:41:40.800Z,87.19
2023-05-12T21:44:11.181Z,87.54
2023-05-12T21:46:39.512Z,87.27
2023-05-12T21:49:07.543Z,86.77
2023-05-12T21:51:35.348Z,87.08
2023-05-12T21:54:03.122Z,87.48
2023-05-12T21:56:31.031Z,87.49
2023-05-12T21:58:58.846Z,87.48
2023-05-12T22:01:28.126Z,87.31
2023-05-12T22:03:55.984Z,88.05
2023-05-12T22:06:23.785Z,88.39
2023-05-12T22:08:51.635Z,88.62
2023-05-12T22:11:19.489Z,88.45
2023-05-12T22:13:47.376Z,88.25
2023-05-12T22:16:15.304Z,88.12
2023-05-12T22:18:45.133Z,88.34
2023-05-12T22:21:13.579Z,88.60
2023-05-12T22:23:42.159Z,88.96
2023-05-12T22:26:10.279Z,89.92
2023-05-12T22:28:38.230Z,89.58
2023-05-12T22:31:06.141Z,89.98
2023-05-12T22:33:34.944Z,90.28
2023-05-12T22:36:04.231Z,89.77
2023-05-12T22:38:32.005Z,89.87
2023-05-12T22:40:59.739Z,90.21
2023-05-12T22:43:28.047Z,90.34
2023-05-12T22:45:56.469Z,90.96
2023-05-12T22:48:25.021Z,91.09
2023-05-12T22:50:54.966Z,92.16
2023-05-12T22:53:24.141Z,92.04
2023-05-12T22:55:51.925Z,92.04
2023-05-12T22:58:19.667Z,91.80
2023-05-12T23:00:47.570Z,91.81
2023-05-12T23:03:15.383Z,91.80
2023-05-12T23:05:43.169Z,91.59
2023-05-12T23:08:10.999Z,91.97
2023-05-12T23:10:40.105Z,92.37
2023-05-12T23:13:07.934Z,93.43
2023-05-12T23:15:35.860Z,93.12
2023-05-12T23:18:03.618Z,93.46
2023-05-12T23:20:31.860Z,94.17
2023-05-12T23:22:59.602Z,92.72
2023-05-12T23:25:27.404Z,93.65
2023-05-12T23:27:56.687Z,94.22
2023-05-12T23:30:24.764Z,94.89
2023-05-12T23:32:52.642Z,94.56
2023-05-12T23:35:20.782Z,95.17
2023-05-12T23:37:48.582Z,95.25
2023-05-12T23:40:16.487Z,95.70
2023-05-12T23:42:44.175Z,95.61
2023-05-12T23:45:13.835Z,94.77
2023-05-12T23:47:41.721Z,95.01
2023-05-12T23:50:10.326Z,94.82
2023-05-12T23:52:38.120Z,95.40
2023-05-12T23:55:06.746Z,96.09
2023-05-12T23:57:34.556Z,96.02
